»·PEaware :: UAL381 KSFO-KONT

UAL381 :: KSFO-KONT

FLIGHT INFORMATION

Flight Status: Arrived
Operator:
United Airlines
More flights by this operator :: More flights under this callsign
Pilot: Vimal A. (13781)
Aircraft: AIRBUS A320
(A320)
More flights by this aircraft type
Origin: KSFO San Francisco Intl
United States
Destination: KONT Ontario Intl
United States
More flights between these airports :: More routes between these airports
Route: +SSTIK3 LOSHN PMD ZIGGY5
File this flight plan on PilotEdge
Remarks:
Altitude:
(Current/Filed)
33,000ft
Speed:
(Current/Filed)
400kts
Departed: 05-Jan-17 11:51 AM
Arrived: 05-Jan-17 12:48 PM
Distance/Time
Traveled:
315nm/0:57
Distance/Time
To Go:
Arrived

Flight Plot

Page will automatically refresh every two minutes.


Map Options




Map Legend


Flown Route
Filed Route
Departure Airport
Arrival Airport
Navaid (VOR, NDB)
Fix

Horizontal Profiles

Position Reports

Time Latitude Longitude Heading Altitude Ground
Speed
05-Jan-17 11:30 37.614966 -122.383367 39 26ft 0kts
05-Jan-17 11:31 37.614966 -122.383367 39 26ft 0kts
05-Jan-17 11:32 37.614966 -122.383367 39 26ft 0kts
05-Jan-17 11:33 37.614966 -122.383367 39 26ft 0kts
05-Jan-17 11:34 37.614966 -122.383367 39 26ft 0kts
05-Jan-17 11:35 37.614966 -122.383367 39 26ft 0kts
05-Jan-17 11:36 37.614966 -122.383367 39 26ft 0kts
05-Jan-17 11:37 37.614966 -122.383367 39 26ft 0kts
05-Jan-17 11:38 37.614966 -122.383367 39 26ft 0kts
05-Jan-17 11:39 37.614966 -122.383367 39 26ft 0kts
05-Jan-17 11:40 37.614937 -122.383397 39 26ft 1kts
05-Jan-17 11:41 37.614439 -122.383917 39 26ft 2kts
05-Jan-17 11:42 37.614417 -122.383941 39 26ft 0kts
05-Jan-17 11:43 37.614417 -122.383940 39 26ft 0kts
05-Jan-17 11:44 37.614418 -122.383940 39 26ft 0kts
05-Jan-17 11:45 37.614426 -122.383932 39 26ft 0kts
05-Jan-17 11:46 37.613232 -122.381760 195 26ft 15kts
05-Jan-17 11:47 37.609822 -122.382992 117 26ft 5kts
05-Jan-17 11:48 37.609794 -122.382926 117 26ft 0kts
05-Jan-17 11:49 37.609793 -122.382924 117 26ft 0kts
05-Jan-17 11:50 37.609742 -122.382802 117 26ft 4kts
05-Jan-17 11:51 37.618246 -122.376081 26 26ft 124kts
05-Jan-17 11:52 37.657784 -122.362496 357 1699ft 159kts
05-Jan-17 11:53 37.710181 -122.384153 307 3081ft 239kts
05-Jan-17 11:54 37.696948 -122.460662 211 6526ft 265kts
05-Jan-17 11:55 37.620181 -122.470102 185 9654ft 293kts
05-Jan-17 11:56 37.537429 -122.472910 187 10447ft 318kts
05-Jan-17 11:57 37.452422 -122.418217 133 12777ft 400kts
05-Jan-17 11:58 37.380013 -122.304571 133 15456ft 432kts
05-Jan-17 11:59 37.302790 -122.184188 134 18137ft 453kts
05-Jan-17 12:00 37.221687 -122.058403 135 20549ft 471kts
05-Jan-17 12:01 37.138107 -121.929250 136 22632ft 484kts
05-Jan-17 12:02 37.051895 -121.796695 136 24395ft 498kts
05-Jan-17 12:03 36.963027 -121.660772 136 25898ft 512kts
05-Jan-17 12:04 36.871251 -121.520927 136 27237ft 526kts
05-Jan-17 12:05 36.777693 -121.378882 137 28417ft 538kts
05-Jan-17 12:06 36.681582 -121.233493 137 29631ft 545kts
05-Jan-17 12:07 36.584529 -121.087302 137 30948ft 547kts
05-Jan-17 12:08 36.487930 -120.942501 137 32325ft 545kts
05-Jan-17 12:09 36.390539 -120.799124 138 33098ft 540kts
05-Jan-17 12:10 36.293531 -120.655713 138 33095ft 540kts
05-Jan-17 12:11 36.197517 -120.513414 138 33088ft 541kts
05-Jan-17 12:12 36.100985 -120.370447 138 33082ft 542kts
05-Jan-17 12:13 36.004282 -120.227597 138 33081ft 542kts
05-Jan-17 12:14 35.908304 -120.086292 138 33081ft 543kts
05-Jan-17 12:15 35.810671 -119.940091 136 33081ft 547kts
05-Jan-17 12:16 35.719224 -119.791045 135 33078ft 548kts
05-Jan-17 12:17 35.627468 -119.641459 135 33079ft 548kts
05-Jan-17 12:18 35.535396 -119.492188 135 32320ft 548kts
05-Jan-17 12:19 35.442973 -119.343244 135 31421ft 550kts
05-Jan-17 12:20 35.350032 -119.194101 135 30521ft 551kts
05-Jan-17 12:21 35.257662 -119.046475 135 29631ft 552kts
05-Jan-17 12:22 35.163773 -118.897012 135 28635ft 550kts
05-Jan-17 12:23 35.071156 -118.750224 135 27635ft 541kts
05-Jan-17 12:24 34.979716 -118.605970 135 26631ft 530kts
05-Jan-17 12:25 34.890225 -118.465365 135 25632ft 520kts
05-Jan-17 12:26 34.802087 -118.327446 135 24629ft 510kts
05-Jan-17 12:27 34.715579 -118.192645 135 24056ft 504kts
05-Jan-17 12:28 34.629437 -118.058327 132 24046ft 507kts
05-Jan-17 12:29 34.558569 -117.907989 124 23430ft 509kts
05-Jan-17 12:30 34.492083 -117.760965 123 21026ft 490kts
05-Jan-17 12:31 34.427646 -117.619489 123 18427ft 470kts
05-Jan-17 12:32 34.365099 -117.483443 123 15820ft 453kts
05-Jan-17 12:33 34.300476 -117.358650 143 13280ft 419kts
05-Jan-17 12:34 34.200989 -117.312422 174 13008ft 382kts
05-Jan-17 12:35 34.127011 -117.229322 107 12363ft 389kts
05-Jan-17 12:36 34.106881 -117.109975 105 11415ft 330kts
05-Jan-17 12:37 34.048097 -117.046247 162 10204ft 267kts
05-Jan-17 12:38 33.996823 -117.065742 267 8304ft 207kts
05-Jan-17 12:39 34.027964 -117.121859 292 7612ft 202kts
05-Jan-17 12:40 34.048714 -117.183318 281 5711ft 196kts
05-Jan-17 12:41 34.052439 -117.248443 270 4084ft 200kts
05-Jan-17 12:42 34.053441 -117.312733 269 4010ft 183kts
05-Jan-17 12:43 34.053507 -117.372288 267 3952ft 177kts
05-Jan-17 12:44 34.052327 -117.431881 267 3632ft 165kts
05-Jan-17 12:45 34.052960 -117.482126 270 2516ft 142kts
05-Jan-17 12:46 34.053944 -117.529738 270 1885ft 143kts
05-Jan-17 12:47 34.054744 -117.577202 270 1111ft 141kts
05-Jan-17 12:48 34.054909 -117.607818 268 958ft 32kts
05-Jan-17 12:49 34.055476 -117.610227 2 958ft 0kts
05-Jan-17 12:50 34.055477 -117.610227 2 958ft 0kts
05-Jan-17 12:51 34.056587 -117.610174 2 958ft 11kts
05-Jan-17 12:52 34.057986 -117.606292 90 958ft 19kts
05-Jan-17 12:53 34.058607 -117.599847 13 958ft 12kts
05-Jan-17 12:54 34.059827 -117.599520 359 958ft 0kts

Navigation Log

Ident Type
1. KSFO Airport
2. PMD Navaid
3. MAJEK Fix
4. HESPE Fix
5. HITOP Fix
6. NITIY Fix
7. ZIGGY Fix
8. KONT Airport